Time;durP1;ratioP1;P1;durP2;ratioP2;P2;SDS_P1;SDS_P2;PMS_P1;PMS_P2;Temp;Humidity;BMP_temperature;BMP_pressure;BME280_temperature;BME280_humidity;BME280_pressure;Samples;Min_cycle;Max_cycle;Signal;HPM_P1;HPM_P2
2022/01/16 00:04:30;;;;;;;52.08;22.48;;;22.50;38.70;;;;;;6253824;27;83216;-71
2022/01/16 00:07:30;;;;;;;48.97;22.63;;;22.40;38.70;;;;;;6252669;27;83676;-71
2022/01/16 00:10:31;;;;;;;45.60;23.23;;;22.50;38.60;;;;;;6255491;27;83083;-70
2022/01/16 00:13:32;;;;;;;48.50;23.10;;;22.40;38.50;;;;;;6257282;27;83071;-70
2022/01/16 00:16:33;;;;;;;48.42;23.75;;;22.40;38.50;;;;;;6256635;27;83143;-71
2022/01/16 00:19:33;;;;;;;50.13;24.00;;;22.40;38.50;;;;;;6257225;27;83143;-71
2022/01/16 00:22:38;;;;;;;51.97;25.25;;;22.40;38.30;;;;;;6258280;27;83342;-70
2022/01/16 00:25:38;;;;;;;44.88;23.98;;;22.40;38.40;;;;;;6250439;27;82840;-71
2022/01/16 00:28:39;;;;;;;47.20;22.83;;;22.40;38.40;;;;;;6238688;27;84003;-73
2022/01/16 00:31:40;;;;;;;54.60;26.48;;;22.40;38.40;;;;;;6243731;27;83021;-71
2022/01/16 00:34:40;;;;;;;54.78;25.73;;;22.40;38.40;;;;;;6255552;27;83498;-70
2022/01/16 00:37:41;;;;;;;52.22;24.73;;;22.40;38.30;;;;;;6252590;27;82796;-71
2022/01/16 00:40:41;;;;;;;53.88;27.25;;;22.40;38.20;;;;;;6254911;27;84536;-71
2022/01/16 00:43:42;;;;;;;52.63;27.45;;;22.40;38.00;;;;;;6246466;27;83307;-71
2022/01/16 00:46:42;;;;;;;52.50;25.80;;;22.40;38.00;;;;;;6255528;27;83300;-71
2022/01/16 00:49:43;;;;;;;52.50;26.60;;;22.40;38.10;;;;;;6257409;27;83270;-70
2022/01/16 00:52:43;;;;;;;48.40;24.17;;;22.40;38.20;;;;;;6256302;27;83481;-69
2022/01/16 00:55:44;;;;;;;48.50;25.00;;;22.40;38.10;;;;;;6254004;27;83391;-70
2022/01/16 00:58:44;;;;;;;53.60;26.48;;;22.40;38.20;;;;;;6242133;28;82938;-69
2022/01/16 01:01:45;;;;;;;50.78;25.75;;;22.40;38.20;;;;;;6250985;27;83545;-71
2022/01/16 01:04:47;;;;;;;50.80;26.90;;;22.40;38.10;;;;;;6255469;27;84311;-71
2022/01/16 01:07:47;;;;;;;53.42;27.02;;;22.40;38.10;;;;;;6255689;27;83820;-70
2022/01/16 01:10:52;;;;;;;53.05;26.95;;;22.40;37.90;;;;;;6260951;27;83470;-71
2022/01/16 01:14:08;;;;;;;55.85;26.80;;;22.40;37.90;;;;;;6258886;27;83679;-71
2022/01/16 01:17:13;;;;;;;;;;;22.40;38.00;;;;;;6258718;27;82974;-70
2022/01/16 01:20:15;;;;;;;52.83;27.00;;;22.40;37.90;;;;;;6269853;27;83064;-70
2022/01/16 01:23:15;;;;;;;56.65;27.15;;;22.40;37.80;;;;;;6256784;27;83168;-70
2022/01/16 01:26:16;;;;;;;51.47;26.92;;;22.40;37.80;;;;;;6244772;27;84161;-70
2022/01/16 01:29:19;;;;;;;50.08;25.30;;;22.40;37.90;;;;;;6257124;27;83071;-70
2022/01/16 01:32:20;;;;;;;53.20;27.02;;;22.40;37.80;;;;;;6255545;27;84305;-69
2022/01/16 01:35:20;;;;;;;53.00;26.42;;;22.30;37.50;;;;;;6256039;27;82984;-69
2022/01/16 01:38:21;;;;;;;58.88;27.30;;;22.30;37.30;;;;;;6255569;27;82959;-69
2022/01/16 01:41:21;;;;;;;54.78;27.77;;;22.30;37.40;;;;;;6255737;27;83460;-69
2022/01/16 01:51:04;;;;;;;55.55;28.45;;;22.30;37.20;;;;;;6238283;27;82883;-69
2022/01/16 01:54:04;;;;;;;55.47;28.00;;;22.30;37.30;;;;;;6253076;27;83336;-69
2022/01/16 01:57:05;;;;;;;57.78;26.80;;;22.20;37.10;;;;;;6254960;27;83550;-69
2022/01/16 02:00:06;;;;;;;57.53;26.92;;;22.20;37.10;;;;;;6254008;27;85630;-70
2022/01/16 02:06:25;;;;;;;54.55;26.83;;;22.20;37.10;;;;;;6254420;27;82990;-71
2022/01/16 02:09:26;;;;;;;54.25;27.20;;;22.20;37.10;;;;;;6252217;27;82991;-71
2022/01/16 02:12:28;;;;;;;51.47;25.25;;;22.20;37.00;;;;;;6253273;28;83035;-71
2022/01/16 02:29:01;;;;;;;50.67;24.85;;;22.20;37.00;;;;;;6252100;27;83193;-71
2022/01/16 02:35:00;;;;;;;46.75;24.23;;;22.20;36.90;;;;;;6253279;27;84086;-70
2022/01/16 02:38:00;;;;;;;48.80;25.02;;;22.20;36.80;;;;;;6252281;27;83151;-70
2022/01/16 02:41:04;;;;;;;50.78;23.95;;;22.20;36.70;;;;;;6249944;27;82984;-69
2022/01/16 02:44:15;;;;;;;48.47;23.67;;;22.20;36.90;;;;;;6248446;27;83359;-70
2022/01/16 02:47:17;;;;;;;47.20;24.50;;;22.20;36.90;;;;;;6254169;27;83829;-70
2022/01/16 02:50:18;;;;;;;51.25;24.27;;;22.20;37.00;;;;;;6254241;27;83070;-71
2022/01/16 02:53:19;;;;;;;46.05;24.08;;;22.20;37.10;;;;;;6267783;27;85614;-69
2022/01/16 02:56:19;;;;;;;49.72;24.33;;;22.20;37.10;;;;;;6252795;27;84248;-70
2022/01/16 02:59:21;;;;;;;41.70;22.48;;;22.20;37.10;;;;;;6233554;27;83087;-69
2022/01/16 03:02:22;;;;;;;45.10;23.25;;;22.20;37.00;;;;;;6258220;27;83302;-70
2022/01/16 03:05:22;;;;;;;46.63;23.33;;;22.20;37.00;;;;;;6258295;27;82788;-71
2022/01/16 03:08:23;;;;;;;46.03;22.85;;;22.20;36.90;;;;;;6254260;27;83716;-71
2022/01/16 03:14:27;;;;;;;46.83;23.90;;;22.20;36.50;;;;;;6257138;27;83089;-71
2022/01/16 03:17:51;;;;;;;49.90;24.73;;;22.20;36.10;;;;;;6249784;27;83841;-72
2022/01/16 03:24:11;;;;;;;51.47;24.83;;;22.30;35.10;;;;;;6255508;28;84201;-70
2022/01/16 03:27:12;;;;;;;43.58;23.80;;;22.40;35.00;;;;;;6250143;27;82913;-70
2022/01/16 03:30:13;;;;;;;45.92;23.50;;;22.40;34.90;;;;;;6256496;27;83090;-70
2022/01/16 03:33:14;;;;;;;44.33;22.35;;;22.40;34.90;;;;;;6256256;27;83337;-71
2022/01/16 03:36:14;;;;;;;47.42;23.75;;;22.50;34.90;;;;;;6255288;27;83535;-71
2022/01/16 03:39:15;;;;;;;43.33;21.80;;;22.50;34.80;;;;;;6255645;27;83221;-70
2022/01/16 03:42:23;;;;;;;46.05;23.10;;;22.50;34.70;;;;;;6255709;27;83603;-70
2022/01/16 03:45:23;;;;;;;48.08;23.75;;;22.50;34.70;;;;;;6256223;27;82989;-70
2022/01/16 03:48:24;;;;;;;41.55;22.17;;;22.60;34.70;;;;;;6256060;27;83121;-70
2022/01/16 03:51:24;;;;;;;39.63;21.77;;;22.60;34.70;;;;;;6257296;27;83589;-69
2022/01/16 03:54:25;;;;;;;40.58;21.95;;;22.60;34.60;;;;;;6256832;27;83349;-69
2022/01/16 03:57:25;;;;;;;40.10;21.35;;;22.60;34.50;;;;;;6256560;27;84279;-69
2022/01/16 04:00:26;;;;;;;38.65;21.95;;;22.60;33.90;;;;;;6257737;27;83165;-69
2022/01/16 04:03:26;;;;;;;41.45;21.48;;;22.70;34.50;;;;;;6256763;27;84620;-70
2022/01/16 04:06:27;;;;;;;41.33;20.92;;;22.70;34.50;;;;;;6240242;27;83913;-70
2022/01/16 04:09:27;;;;;;;43.83;21.88;;;22.70;34.40;;;;;;6254829;27;83826;-70
2022/01/16 04:12:28;;;;;;;36.97;20.00;;;22.70;34.30;;;;;;6253183;27;83254;-70
2022/01/16 04:15:32;;;;;;;37.72;19.88;;;22.70;34.30;;;;;;6238121;28;84808;-71
2022/01/16 04:18:32;;;;;;;37.35;18.98;;;22.70;34.30;;;;;;6253858;27;82932;-71
2022/01/16 04:21:33;;;;;;;39.45;20.35;;;22.70;34.20;;;;;;6255983;27;83136;-72
2022/01/16 04:24:33;;;;;;;38.60;20.15;;;22.70;34.10;;;;;;6254049;27;83413;-70
2022/01/16 04:27:34;;;;;;;36.25;20.05;;;22.80;34.20;;;;;;6253571;27;86296;-71
2022/01/16 04:30:34;;;;;;;38.33;20.52;;;22.80;34.10;;;;;;6250613;27;84619;-71
2022/01/16 04:33:35;;;;;;;34.10;18.80;;;22.70;33.90;;;;;;6253601;28;84745;-72
2022/01/16 04:36:37;;;;;;;37.15;20.00;;;22.70;33.90;;;;;;6254562;27;84989;-72
2022/01/16 04:39:37;;;;;;;35.40;18.58;;;22.80;33.80;;;;;;6253129;27;83257;-72
2022/01/16 04:45:57;;;;;;;35.00;18.45;;;22.80;33.90;;;;;;6256180;27;87390;-71
2022/01/16 04:48:58;;;;;;;39.97;19.75;;;22.80;33.80;;;;;;6253857;27;83009;-71
2022/01/16 04:51:58;;;;;;;38.05;19.92;;;22.80;33.80;;;;;;6256437;27;83287;-70
2022/01/16 04:54:59;;;;;;;31.35;17.98;;;22.80;33.70;;;;;;6253965;27;83434;-73
2022/01/16 04:57:59;;;;;;;34.08;18.25;;;22.80;33.70;;;;;;6253520;27;82782;-72
2022/01/16 05:01:00;;;;;;;33.10;18.42;;;22.80;33.60;;;;;;6255179;27;83545;-73
2022/01/16 05:04:00;;;;;;;36.22;19.73;;;22.90;33.60;;;;;;6255234;27;84642;-73
2022/01/16 05:07:01;;;;;;;38.58;19.58;;;22.90;33.80;;;;;;6256124;27;82805;-73
2022/01/16 05:10:01;;;;;;;37.05;19.52;;;22.80;33.70;;;;;;6254529;27;84146;-73
2022/01/16 05:13:28;;;;;;;38.25;19.85;;;22.90;33.70;;;;;;6248167;27;83101;-73
2022/01/16 05:16:34;;;;;;;34.97;19.33;;;22.90;33.60;;;;;;6252384;27;84421;-73
2022/01/16 05:19:35;;;;;;;34.70;18.60;;;22.90;33.50;;;;;;6253936;27;85351;-70
2022/01/16 05:22:36;;;;;;;33.20;17.83;;;22.90;33.50;;;;;;6254042;27;82783;-69
2022/01/16 05:25:37;;;;;;;32.88;17.58;;;22.90;34.30;;;;;;6253400;27;83534;-74
2022/01/16 05:28:37;;;;;;;34.60;18.10;;;22.90;33.70;;;;;;6245017;27;84159;-69
2022/01/16 05:31:44;;;;;;;34.55;17.20;;;23.00;34.00;;;;;;6240082;27;83181;-70
2022/01/16 05:34:44;;;;;;;33.90;17.45;;;23.00;34.80;;;;;;6240658;27;83319;-71
2022/01/16 05:37:45;;;;;;;30.67;16.25;;;23.00;34.70;;;;;;6253035;27;83208;-71
2022/01/16 05:40:45;;;;;;;33.10;17.42;;;23.00;34.40;;;;;;6249897;27;84285;-67
2022/01/16 05:43:46;;;;;;;28.70;16.25;;;23.00;34.20;;;;;;6250085;27;84121;-69
2022/01/16 05:46:47;;;;;;;32.25;15.57;;;23.10;34.60;;;;;;6251459;27;84193;-71
2022/01/16 05:49:48;;;;;;;36.88;16.77;;;23.10;34.60;;;;;;6250554;27;83315;-71
2022/01/16 05:52:48;;;;;;;35.35;17.15;;;23.10;34.60;;;;;;6246085;27;83790;-70
2022/01/16 05:55:49;;;;;;;27.83;16.05;;;23.10;35.00;;;;;;6251283;27;83139;-69
2022/01/16 05:58:49;;;;;;;31.35;17.05;;;23.10;34.60;;;;;;6245585;27;84000;-70
2022/01/16 06:01:49;;;;;;;29.90;16.45;;;23.10;35.00;;;;;;6266465;27;84714;-72
2022/01/16 06:04:50;;;;;;;30.77;16.75;;;23.10;35.30;;;;;;6249932;27;83159;-72
2022/01/16 06:07:54;;;;;;;33.00;16.95;;;23.10;35.00;;;;;;6251603;27;82906;-72
2022/01/16 06:10:54;;;;;;;33.05;16.52;;;23.10;35.90;;;;;;6256159;27;83200;-71
2022/01/16 06:13:55;;;;;;;36.53;17.38;;;23.10;35.60;;;;;;6254213;27;83961;-72
2022/01/16 06:16:55;;;;;;;33.92;17.15;;;23.10;35.60;;;;;;6247376;28;84110;-74
2022/01/16 06:19:56;;;;;;;37.72;17.58;;;23.10;35.90;;;;;;6252098;27;83066;-71
2022/01/16 06:22:57;;;;;;;38.97;17.52;;;23.10;36.80;;;;;;6254751;27;83105;-69
2022/01/16 06:25:57;;;;;;;37.83;20.55;;;23.00;36.70;;;;;;6254350;27;82682;-69
2022/01/16 06:28:58;;;;;;;43.13;19.67;;;23.00;37.90;;;;;;6254627;27;83199;-66
2022/01/16 06:31:58;;;;;;;44.45;21.13;;;23.00;38.80;;;;;;6254280;27;83449;-71
2022/01/16 06:34:59;;;;;;;48.97;22.38;;;23.00;37.70;;;;;;6254111;27;83376;-71
2022/01/16 06:37:59;;;;;;;50.65;23.83;;;22.90;38.10;;;;;;6253909;27;82852;-71
2022/01/16 06:41:00;;;;;;;40.00;20.35;;;22.90;37.90;;;;;;6258692;27;84393;-71
2022/01/16 06:44:00;;;;;;;48.42;22.25;;;22.90;37.80;;;;;;6258933;27;85215;-71
2022/01/16 06:47:01;;;;;;;42.53;21.33;;;22.90;38.50;;;;;;6257841;27;83027;-72
2022/01/16 06:50:01;;;;;;;52.40;22.88;;;22.90;38.30;;;;;;6256638;28;83220;-71
2022/01/16 06:53:02;;;;;;;43.88;22.10;;;22.90;38.40;;;;;;6259786;27;83936;-73
2022/01/16 06:56:02;;;;;;;47.50;22.90;;;22.90;39.60;;;;;;6255631;28;82810;-73
2022/01/16 06:59:04;;;;;;;51.00;22.42;;;22.90;39.10;;;;;;6257115;27;83547;-71
2022/01/16 07:02:05;;;;;;;48.25;22.73;;;22.90;38.40;;;;;;6258768;27;83156;-76
2022/01/16 07:05:05;;;;;;;52.50;25.02;;;22.90;39.70;;;;;;6256935;27;83169;-69
2022/01/16 07:08:06;;;;;;;53.15;24.17;;;22.80;39.00;;;;;;6251772;27;83354;-70
2022/01/16 07:11:06;;;;;;;53.25;24.67;;;22.80;39.00;;;;;;6257205;27;83461;-70
2022/01/16 07:14:07;;;;;;;50.97;23.35;;;22.80;39.00;;;;;;6256456;27;83399;-70
2022/01/16 07:17:07;;;;;;;49.55;24.35;;;22.80;38.90;;;;;;6255475;27;83240;-72
2022/01/16 07:20:08;;;;;;;51.15;24.58;;;22.80;38.30;;;;;;6245117;27;83167;-68
2022/01/16 07:23:08;;;;;;;40.22;20.75;;;22.80;38.40;;;;;;6256672;27;83589;-70
2022/01/16 07:26:09;;;;;;;39.13;19.48;;;22.80;39.60;;;;;;6256928;27;83431;-72
2022/01/16 07:29:09;;;;;;;32.47;16.42;;;22.70;40.20;;;;;;6253879;28;85695;-70
2022/01/16 07:32:10;;;;;;;33.80;15.57;;;22.70;41.30;;;;;;6257611;27;84458;-71
2022/01/16 07:35:10;;;;;;;28.25;14.57;;;22.70;42.40;;;;;;6255944;27;82809;-70
2022/01/16 07:38:11;;;;;;;28.35;14.68;;;22.70;43.00;;;;;;6256934;27;83103;-72
2022/01/16 07:41:12;;;;;;;29.83;13.98;;;22.70;43.30;;;;;;6256488;27;83278;-74
2022/01/16 07:44:12;;;;;;;26.00;14.18;;;22.70;43.80;;;;;;6253701;28;84074;-69
2022/01/16 07:47:14;;;;;;;27.33;14.00;;;22.60;43.90;;;;;;6255142;27;84102;-72
2022/01/16 07:50:14;;;;;;;24.70;13.00;;;22.60;43.80;;;;;;6255009;27;84162;-72
2022/01/16 07:53:17;;;;;;;26.52;13.65;;;22.70;44.50;;;;;;6246389;28;84195;-73
2022/01/16 07:56:22;;;;;;;25.60;13.25;;;22.70;44.50;;;;;;6257182;27;83508;-74
2022/01/16 07:59:26;;;;;;;25.17;12.80;;;22.60;44.80;;;;;;6256124;27;83430;-68
2022/01/16 08:02:30;;;;;;;22.02;12.80;;;22.50;45.00;;;;;;6254527;27;84293;-73
2022/01/16 08:05:31;;;;;;;23.42;13.75;;;22.50;44.60;;;;;;6255757;27;84179;-72
2022/01/16 08:08:31;;;;;;;21.10;12.27;;;22.40;45.00;;;;;;6256278;27;82996;-72
2022/01/16 08:11:32;;;;;;;21.58;12.07;;;22.50;46.00;;;;;;6254171;28;83609;-71
2022/01/16 08:14:32;;;;;;;21.13;10.68;;;22.40;46.00;;;;;;6251039;27;84655;-75
2022/01/16 08:17:36;;;;;;;18.67;11.50;;;22.50;46.60;;;;;;6254274;27;84348;-73
2022/01/16 08:20:36;;;;;;;20.38;11.75;;;22.60;47.20;;;;;;6256462;27;83466;-69
2022/01/16 08:23:37;;;;;;;26.77;13.60;;;22.60;46.80;;;;;;6254306;28;84514;-69
2022/01/16 08:26:37;;;;;;;34.15;14.50;;;22.70;46.70;;;;;;6254122;27;83481;-71
2022/01/16 08:29:38;;;;;;;25.45;14.85;;;22.70;46.30;;;;;;6250172;27;84563;-67
2022/01/16 08:32:39;;;;;;;24.38;14.93;;;22.80;45.50;;;;;;6252582;27;83170;-66
2022/01/16 08:35:40;;;;;;;28.08;15.52;;;22.80;44.90;;;;;;6254940;28;85887;-66
2022/01/16 08:38:40;;;;;;;29.27;17.20;;;22.90;44.70;;;;;;6253683;27;84234;-63
2022/01/16 08:41:41;;;;;;;29.95;16.45;;;22.90;44.30;;;;;;6254005;27;82941;-62
2022/01/16 08:44:42;;;;;;;33.60;17.73;;;23.00;43.80;;;;;;6239009;28;83466;-63
2022/01/16 08:47:43;;;;;;;31.60;18.27;;;23.00;43.60;;;;;;6255843;27;83264;-62
2022/01/16 08:50:43;;;;;;;32.53;17.00;;;23.00;43.80;;;;;;6255185;27;83498;-64
2022/01/16 08:53:44;;;;;;;27.10;16.35;;;23.00;44.00;;;;;;6255050;27;84412;-62
2022/01/16 08:56:44;;;;;;;27.92;15.52;;;23.00;44.10;;;;;;6253025;27;84782;-64
2022/01/16 08:59:45;;;;;;;25.90;14.60;;;23.10;44.10;;;;;;6251859;27;84119;-66
2022/01/16 09:02:45;;;;;;;25.20;15.85;;;23.20;43.90;;;;;;6234625;28;86112;-63
2022/01/16 09:05:46;;;;;;;21.83;13.55;;;23.30;42.90;;;;;;6254444;27;84250;-66
2022/01/16 09:08:47;;;;;;;20.40;12.25;;;23.40;43.40;;;;;;6245575;27;84047;-65
2022/01/16 09:11:47;;;;;;;26.77;13.30;;;23.50;43.00;;;;;;6253176;28;84386;-65
2022/01/16 09:14:48;;;;;;;25.30;13.32;;;23.60;43.20;;;;;;6246795;27;83053;-66
2022/01/16 09:17:48;;;;;;;20.45;13.23;;;23.70;42.60;;;;;;6253158;27;83524;-65
2022/01/16 09:20:49;;;;;;;24.27;14.30;;;23.80;43.10;;;;;;6254675;27;83934;-67
2022/01/16 09:23:50;;;;;;;23.48;13.48;;;23.90;42.10;;;;;;6253749;27;84525;-63
2022/01/16 09:26:54;;;;;;;24.67;14.68;;;24.00;42.20;;;;;;6250382;27;84496;-68
2022/01/16 09:29:55;;;;;;;23.77;14.68;;;24.00;41.90;;;;;;6249977;27;84470;-68
2022/01/16 09:32:55;;;;;;;26.70;14.80;;;24.10;41.80;;;;;;6251414;28;83933;-69
2022/01/16 09:35:56;;;;;;;23.92;14.57;;;24.10;41.40;;;;;;6251496;28;83862;-69
2022/01/16 09:38:56;;;;;;;21.83;14.18;;;24.20;40.90;;;;;;6249192;27;83179;-68
2022/01/16 09:41:57;;;;;;;22.15;14.50;;;24.20;41.00;;;;;;6253249;27;83303;-68
2022/01/16 09:44:57;;;;;;;25.10;15.38;;;24.20;41.20;;;;;;6252649;27;84127;-69
2022/01/16 09:47:58;;;;;;;20.85;13.55;;;24.30;41.10;;;;;;6251663;27;83095;-68
2022/01/16 09:50:58;;;;;;;20.73;13.07;;;24.30;41.60;;;;;;6253387;27;84039;-70
2022/01/16 09:53:59;;;;;;;21.92;13.27;;;24.40;42.20;;;;;;6252915;27;83625;-71
2022/01/16 09:56:59;;;;;;;23.13;13.73;;;24.40;42.20;;;;;;6252266;27;83254;-69
2022/01/16 10:00:00;;;;;;;23.63;13.80;;;24.40;42.20;;;;;;6249707;27;83714;-69
2022/01/16 10:03:02;;;;;;;24.80;13.57;;;24.40;42.00;;;;;;6250480;27;90946;-68
2022/01/16 10:06:02;;;;;;;22.85;14.07;;;24.40;42.00;;;;;;6246672;27;83251;-68
2022/01/16 10:09:03;;;;;;;20.88;13.18;;;24.40;41.80;;;;;;6253266;27;83176;-66
2022/01/16 10:12:13;;;;;;;23.80;14.48;;;24.40;42.00;;;;;;6258266;27;83088;-65
2022/01/16 10:15:13;;;;;;;23.00;14.75;;;24.40;42.10;;;;;;6256446;28;82731;-66
2022/01/16 10:18:14;;;;;;;51.30;28.33;;;24.40;42.20;;;;;;6257442;27;84611;-67
2022/01/16 10:21:14;;;;;;;129.32;66.32;;;24.40;42.10;;;;;;6259154;27;82970;-67
2022/01/16 10:24:15;;;;;;;154.27;80.72;;;24.40;42.60;;;;;;6259121;27;84556;-66
2022/01/16 10:27:17;;;;;;;125.22;64.43;;;24.40;42.80;;;;;;6257201;27;83711;-66
2022/01/16 10:30:18;;;;;;;102.45;54.42;;;24.40;43.10;;;;;;6257809;27;83106;-67
2022/01/16 10:33:19;;;;;;;122.03;63.88;;;24.50;43.00;;;;;;6258982;27;84159;-66
2022/01/16 10:36:20;;;;;;;159.55;82.78;;;24.60;43.10;;;;;;6256931;27;83125;-67
2022/01/16 10:39:20;;;;;;;195.48;96.45;;;24.70;43.60;;;;;;6256793;27;83259;-67
2022/01/16 10:42:21;;;;;;;154.10;81.40;;;24.70;44.00;;;;;;6245646;27;83305;-67
2022/01/16 10:45:21;;;;;;;137.82;72.93;;;24.80;44.00;;;;;;6256784;27;83772;-71
2022/01/16 10:48:22;;;;;;;117.32;59.30;;;24.80;44.00;;;;;;6257106;27;84184;-69
2022/01/16 10:51:22;;;;;;;106.57;54.03;;;24.80;44.00;;;;;;6257946;27;84440;-69
2022/01/16 10:54:23;;;;;;;81.78;43.35;;;24.80;43.90;;;;;;6256860;27;82922;-67
2022/01/16 10:57:24;;;;;;;71.80;38.15;;;24.90;43.70;;;;;;6257822;27;83643;-68
2022/01/16 11:00:24;;;;;;;67.95;35.22;;;25.00;43.20;;;;;;6256252;28;85449;-70
2022/01/16 11:03:26;;;;;;;58.08;32.38;;;25.00;42.90;;;;;;6257979;27;84134;-70
2022/01/16 11:06:26;;;;;;;55.20;29.60;;;25.10;42.70;;;;;;6257525;27;82991;-69
2022/01/16 11:09:27;;;;;;;52.28;28.00;;;25.10;42.50;;;;;;6256454;27;83482;-68
2022/01/16 11:12:27;;;;;;;44.65;24.70;;;25.10;42.20;;;;;;6258304;27;83168;-69
2022/01/16 11:15:28;;;;;;;44.30;25.02;;;25.10;41.90;;;;;;6255444;27;82998;-69
2022/01/16 11:18:28;;;;;;;39.10;23.25;;;25.10;41.60;;;;;;6268654;27;83426;-66
2022/01/16 11:21:34;;;;;;;51.28;28.40;;;25.20;41.70;;;;;;6254920;27;84086;-66
2022/01/16 11:27:35;;;;;;;52.33;31.25;;;24.60;34.90;;;;;;6261818;27;83314;-67
2022/01/16 11:30:36;;;;;;;59.65;33.55;;;24.40;33.50;;;;;;6249066;27;82733;-72
2022/01/16 11:33:36;;;;;;;52.72;32.67;;;24.10;32.20;;;;;;6254690;27;83064;-69
2022/01/16 11:36:37;;;;;;;44.05;27.40;;;23.90;31.90;;;;;;6254670;27;83118;-66
2022/01/16 11:39:37;;;;;;;35.63;22.65;;;23.90;33.70;;;;;;6250359;27;83566;-68
2022/01/16 11:42:38;;;;;;;41.95;22.58;;;24.10;35.00;;;;;;6244869;28;83187;-69
2022/01/16 11:45:38;;;;;;;31.52;20.08;;;24.30;35.70;;;;;;6255481;27;82982;-68
2022/01/16 11:48:39;;;;;;;32.83;19.73;;;24.40;37.20;;;;;;6252065;27;84278;-67
2022/01/16 11:51:39;;;;;;;27.45;17.40;;;24.50;37.20;;;;;;6267317;27;83163;-71
2022/01/16 11:54:40;;;;;;;30.25;18.63;;;24.50;38.30;;;;;;6257585;27;83065;-69
2022/01/16 11:57:41;;;;;;;30.90;17.70;;;24.60;38.20;;;;;;6253700;27;83205;-68
2022/01/16 12:00:41;;;;;;;28.85;16.80;;;24.70;38.40;;;;;;6240322;27;84524;-69
2022/01/16 12:03:43;;;;;;;28.63;16.92;;;24.70;38.30;;;;;;6254634;27;84290;-69
2022/01/16 12:06:43;;;;;;;30.40;17.42;;;24.80;38.00;;;;;;6255443;28;87070;-70
2022/01/16 12:12:45;;;;;;;30.35;16.42;;;24.90;38.60;;;;;;6254066;27;83229;-67
2022/01/16 12:15:46;;;;;;;30.95;17.55;;;24.90;38.70;;;;;;6255635;27;83397;-68
2022/01/16 12:18:49;;;;;;;24.55;14.88;;;24.90;39.10;;;;;;6256297;27;84577;-68
2022/01/16 12:21:50;;;;;;;26.55;16.10;;;25.00;39.00;;;;;;6243340;28;83664;-69
2022/01/16 12:24:50;;;;;;;27.15;15.15;;;25.10;39.30;;;;;;6266017;27;83524;-71
2022/01/16 12:27:51;;;;;;;28.10;15.18;;;25.10;40.10;;;;;;6237550;28;86021;-68
2022/01/16 12:30:52;;;;;;;33.67;16.50;;;25.10;39.90;;;;;;6256238;27;83099;-69
2022/01/16 12:33:55;;;;;;;23.40;13.70;;;25.10;39.80;;;;;;6255071;27;82967;-69
2022/01/16 12:36:56;;;;;;;24.65;14.93;;;25.10;40.30;;;;;;6238866;27;87373;-69
2022/01/16 12:39:57;;;;;;;28.13;15.52;;;25.10;40.60;;;;;;6254239;27;83355;-69
2022/01/16 12:42:57;;;;;;;23.10;12.75;;;25.10;40.10;;;;;;6257116;27;84889;-69
2022/01/16 12:45:58;;;;;;;22.08;12.27;;;25.10;40.30;;;;;;6257367;27;83756;-69
2022/01/16 12:48:58;;;;;;;22.90;13.40;;;25.10;40.20;;;;;;6254572;27;83321;-70
2022/01/16 12:51:59;;;;;;;23.90;12.60;;;25.10;39.70;;;;;;6254088;27;83354;-70
2022/01/16 12:54:59;;;;;;;18.90;10.88;;;25.10;40.70;;;;;;6254677;27;84301;-68
2022/01/16 12:58:00;;;;;;;20.42;10.57;;;25.00;40.50;;;;;;6267633;27;83211;-70
2022/01/16 13:01:00;;;;;;;16.60;9.73;;;25.00;39.60;;;;;;6254439;27;83523;-69
2022/01/16 13:04:01;;;;;;;18.65;9.70;;;24.90;39.30;;;;;;6250992;27;86331;-69
2022/01/16 13:07:02;;;;;;;20.15;9.98;;;24.80;39.80;;;;;;6252709;27;80383;-69
2022/01/16 13:10:03;;;;;;;20.55;8.70;;;24.70;39.60;;;;;;6254342;27;82960;-70
2022/01/16 13:13:03;;;;;;;15.52;8.88;;;24.60;40.90;;;;;;6255090;27;82945;-70
2022/01/16 13:16:04;;;;;;;13.80;7.85;;;24.60;40.70;;;;;;6257696;27;82722;-69
2022/01/16 13:19:05;;;;;;;13.18;8.30;;;24.50;41.10;;;;;;6258080;27;81313;-68
2022/01/16 13:22:12;;;;;;;13.52;8.02;;;24.50;41.80;;;;;;6241722;27;82084;-68
2022/01/16 13:25:12;;;;;;;13.20;7.75;;;24.40;42.00;;;;;;6257105;27;80147;-67
2022/01/16 13:28:13;;;;;;;15.25;8.15;;;24.40;43.00;;;;;;6254886;27;80251;-68
2022/01/16 13:31:13;;;;;;;11.57;7.22;;;24.30;42.90;;;;;;6257099;27;80848;-67
2022/01/16 13:34:14;;;;;;;15.77;7.63;;;24.30;43.60;;;;;;6256702;27;80401;-70
2022/01/16 13:37:14;;;;;;;12.23;7.20;;;24.30;44.40;;;;;;6256139;27;80889;-68
2022/01/16 13:40:15;;;;;;;14.73;8.40;;;24.30;43.90;;;;;;6262592;27;81903;-69
2022/01/16 13:43:16;;;;;;;13.27;7.85;;;24.20;43.20;;;;;;6260570;27;80691;-70
2022/01/16 13:46:17;;;;;;;16.17;8.48;;;24.20;43.70;;;;;;6255036;27;80615;-69
2022/01/16 13:49:17;;;;;;;14.27;7.75;;;24.10;43.90;;;;;;6256994;27;80681;-68
2022/01/16 13:52:18;;;;;;;16.17;8.27;;;24.10;44.30;;;;;;6257470;27;81929;-69
2022/01/16 13:55:18;;;;;;;17.40;8.63;;;24.10;44.50;;;;;;6257854;27;80405;-70
2022/01/16 13:58:19;;;;;;;14.20;8.70;;;24.10;44.60;;;;;;6252403;27;82632;-68
2022/01/16 14:01:19;;;;;;;12.95;8.38;;;24.10;44.80;;;;;;6257719;27;80634;-69
2022/01/16 14:04:20;;;;;;;13.60;7.18;;;24.10;44.90;;;;;;6240329;27;82103;-68
2022/01/16 14:07:21;;;;;;;16.13;7.90;;;24.00;45.30;;;;;;6258715;27;81119;-69
2022/01/16 14:10:22;;;;;;;16.35;8.63;;;24.00;45.30;;;;;;6258143;27;80682;-71
2022/01/16 14:13:23;;;;;;;17.02;8.95;;;24.00;45.00;;;;;;6255905;27;81746;-69
2022/01/16 14:16:23;;;;;;;15.35;8.70;;;23.90;44.90;;;;;;6255886;27;82432;-70
2022/01/16 14:19:27;;;;;;;14.52;8.40;;;23.90;45.30;;;;;;6256994;27;81865;-69
2022/01/16 14:22:28;;;;;;;16.52;9.60;;;23.90;45.50;;;;;;6257928;27;80478;-69
2022/01/16 14:25:29;;;;;;;16.73;8.65;;;23.90;45.30;;;;;;6257777;27;80947;-70
2022/01/16 14:28:29;;;;;;;16.92;9.60;;;23.90;46.00;;;;;;6256557;27;80475;-69
2022/01/16 14:31:29;;;;;;;19.35;9.48;;;23.90;45.60;;;;;;6259677;27;80878;-70
2022/01/16 14:34:30;;;;;;;17.33;9.55;;;23.80;45.90;;;;;;6246851;27;80472;-70
2022/01/16 14:37:31;;;;;;;12.60;7.80;;;23.80;45.90;;;;;;6255612;27;80350;-69
2022/01/16 14:40:32;;;;;;;17.45;9.38;;;23.70;45.90;;;;;;6258461;27;80420;-68
2022/01/16 14:43:53;;;;;;;19.30;8.93;;;23.70;46.10;;;;;;6256580;27;81963;-69
2022/01/16 14:46:54;;;;;;;15.82;9.30;;;23.70;46.30;;;;;;6248962;28;80824;-69
2022/01/16 14:49:55;;;;;;;16.45;9.82;;;23.70;45.60;;;;;;6238027;28;83166;-70
2022/01/16 14:52:56;;;;;;;14.63;8.90;;;23.70;45.70;;;;;;6247411;27;80186;-69
2022/01/16 14:55:56;;;;;;;15.07;8.48;;;23.70;45.70;;;;;;6258470;27;82194;-68
2022/01/16 14:58:57;;;;;;;15.32;8.52;;;23.70;45.50;;;;;;6259513;27;82156;-69
2022/01/16 15:01:58;;;;;;;19.30;8.85;;;23.60;45.30;;;;;;6259928;27;80479;-68
2022/01/16 15:04:59;;;;;;;16.77;9.07;;;23.60;45.50;;;;;;6259021;27;80818;-67
2022/01/16 15:07:59;;;;;;;18.25;9.85;;;23.60;45.50;;;;;;6260078;27;80667;-70
2022/01/16 15:11:00;;;;;;;46.50;14.52;;;23.50;45.50;;;;;;6263131;27;81595;-68
2022/01/16 15:14:01;;;;;;;41.88;14.48;;;23.50;45.80;;;;;;6257023;27;83042;-69
2022/01/16 15:17:01;;;;;;;44.05;14.40;;;23.60;46.00;;;;;;6254942;28;84403;-67
2022/01/16 15:20:05;;;;;;;36.25;14.40;;;23.50;46.50;;;;;;6256546;27;82916;-69
2022/01/16 15:23:05;;;;;;;30.88;14.43;;;23.50;46.60;;;;;;6255191;27;83508;-68
2022/01/16 15:26:06;;;;;;;38.80;13.18;;;23.40;46.40;;;;;;6271898;27;83248;-66
2022/01/16 15:29:08;;;;;;;30.13;12.25;;;23.40;47.10;;;;;;6255906;27;83614;-67
2022/01/16 15:32:08;;;;;;;29.92;13.00;;;23.40;47.10;;;;;;6250561;27;83156;-69
2022/01/16 15:35:09;;;;;;;33.38;13.13;;;23.50;47.10;;;;;;6256862;27;83209;-68
2022/01/16 15:38:10;;;;;;;33.35;13.10;;;23.50;46.70;;;;;;6256377;27;83015;-69
2022/01/16 15:41:10;;;;;;;33.20;12.90;;;23.60;46.90;;;;;;6256742;27;83448;-70
2022/01/16 15:44:12;;;;;;;28.17;12.75;;;23.60;46.70;;;;;;6257114;27;84327;-70
2022/01/16 15:47:12;;;;;;;27.83;12.30;;;23.50;46.50;;;;;;6250084;28;83056;-70
2022/01/16 15:50:13;;;;;;;28.75;13.10;;;23.50;46.40;;;;;;6255304;27;83248;-69
2022/01/16 15:53:14;;;;;;;32.67;13.90;;;23.60;46.50;;;;;;6256897;27;83676;-70
2022/01/16 15:56:15;;;;;;;29.05;12.70;;;23.60;46.40;;;;;;6257327;27;84123;-69
2022/01/16 15:59:16;;;;;;;29.25;14.32;;;23.50;46.40;;;;;;6243624;27;87563;-70
2022/01/16 16:02:16;;;;;;;28.60;12.75;;;23.50;46.30;;;;;;6248661;27;84920;-68
2022/01/16 16:05:17;;;;;;;28.20;12.82;;;23.60;46.30;;;;;;6255185;27;84480;-72